createdAt,value
2019-05-19T00:01:25.954Z,98299.73
2019-05-19T00:03:55.528Z,98308.19
2019-05-19T00:06:25.166Z,98302.33
2019-05-19T00:08:54.770Z,98304.22
2019-05-19T00:11:24.427Z,98303.13
2019-05-19T00:13:54.033Z,98304.08
2019-05-19T00:16:23.629Z,98293.30
2019-05-19T00:18:53.258Z,98293.05
2019-05-19T00:21:22.869Z,98293.03
2019-05-19T00:23:52.525Z,98289.31
2019-05-19T00:26:22.093Z,98286.63
2019-05-19T00:28:51.704Z,98280.22
2019-05-19T00:31:21.339Z,98294.56
2019-05-19T00:33:50.932Z,98292.59
2019-05-19T00:36:20.544Z,98300.94
2019-05-19T00:38:50.220Z,98310.02
2019-05-19T00:41:19.801Z,98304.25
2019-05-19T00:43:49.422Z,98313.47
2019-05-19T00:46:19.011Z,98308.11
2019-05-19T00:48:48.685Z,98313.61
2019-05-19T00:51:18.556Z,98308.19
2019-05-19T00:53:48.137Z,98306.83
2019-05-19T00:56:18.419Z,98302.25
2019-05-19T00:58:49.366Z,98301.35
2019-05-19T01:01:19.061Z,98291.86
2019-05-19T01:03:48.675Z,98295.50
2019-05-19T01:06:18.278Z,98302.92
2019-05-19T01:08:47.869Z,98306.03
2019-05-19T01:11:17.591Z,98307.66
2019-05-19T01:13:47.231Z,98311.13
2019-05-19T01:16:16.835Z,98306.42
2019-05-19T01:18:46.443Z,98311.38
2019-05-19T01:21:16.036Z,98301.80
2019-05-19T01:23:45.669Z,98304.04
2019-05-19T01:26:15.342Z,98308.97
2019-05-19T01:28:44.958Z,98313.17
2019-05-19T01:31:14.542Z,98313.54
2019-05-19T01:33:44.274Z,98316.23
2019-05-19T01:36:13.928Z,98319.60
2019-05-19T01:38:43.541Z,98319.80
2019-05-19T01:41:13.187Z,98315.42
2019-05-19T01:43:42.793Z,98318.30
2019-05-19T01:46:12.418Z,98318.61
2019-05-19T01:48:42.018Z,98317.70
2019-05-19T01:51:11.774Z,98315.27
2019-05-19T01:53:41.373Z,98310.08
2019-05-19T01:56:10.953Z,98316.48
2019-05-19T01:58:40.574Z,98312.31
2019-05-19T02:01:10.215Z,98313.81
2019-05-19T02:03:39.867Z,98311.67
2019-05-19T02:06:09.592Z,98309.63
2019-05-19T02:08:39.220Z,98312.99
2019-05-19T02:11:08.851Z,98316.20
2019-05-19T02:13:38.454Z,98323.18
2019-05-19T02:16:08.144Z,98325.74
2019-05-19T02:18:37.763Z,98328.87
2019-05-19T02:21:07.401Z,98331.48
2019-05-19T02:23:36.982Z,98332.55
2019-05-19T02:26:06.570Z,98335.40
2019-05-19T02:28:36.217Z,98333.35
2019-05-19T02:31:05.823Z,98339.95
2019-05-19T02:33:36.030Z,98332.09
2019-05-19T02:36:05.834Z,98332.30
2019-05-19T02:38:35.428Z,98331.11
2019-05-19T02:41:06.888Z,98327.88
2019-05-19T02:43:37.411Z,98328.98
2019-05-19T02:46:07.717Z,98326.02
2019-05-19T02:48:39.161Z,98323.56
2019-05-19T02:51:10.436Z,98320.81
2019-05-19T02:53:40.436Z,98326.11
2019-05-19T02:56:11.043Z,98328.62
2019-05-19T02:58:41.964Z,98326.28
2019-05-19T03:01:11.601Z,98331.87
2019-05-19T03:03:41.197Z,98329.39
2019-05-19T03:06:10.807Z,98324.86
2019-05-19T03:08:40.419Z,98320.08
2019-05-19T03:11:10.046Z,98319.63
2019-05-19T03:13:39.635Z,98325.44
2019-05-19T03:16:09.287Z,98329.39
2019-05-19T03:18:38.920Z,98335.16
2019-05-19T03:21:11.405Z,98338.52
2019-05-19T03:23:39.831Z,98345.34
2019-05-19T03:26:09.476Z,98346.64
2019-05-19T03:28:39.166Z,98355.84
2019-05-19T03:31:19.510Z,98353.39
2019-05-19T03:33:49.847Z,98368.41
2019-05-19T03:36:19.460Z,98368.27
2019-05-19T03:38:49.118Z,98366.78
2019-05-19T03:41:18.799Z,98365.72
2019-05-19T03:43:48.446Z,98364.95
2019-05-19T03:46:18.167Z,98374.48
2019-05-19T03:48:47.760Z,98380.90
2019-05-19T03:51:30.005Z,98380.78
2019-05-19T03:53:48.731Z,98389.11
2019-05-19T03:56:18.387Z,98388.62
2019-05-19T03:58:47.993Z,98384.44
2019-05-19T04:01:17.666Z,98396.33
2019-05-19T04:03:47.290Z,98396.77
2019-05-19T04:06:16.916Z,98402.63
2019-05-19T04:08:46.549Z,98396.36
2019-05-19T04:11:16.111Z,98407.97
2019-05-19T04:13:45.753Z,98413.34
2019-05-19T04:16:15.359Z,98410.34
2019-05-19T04:18:44.963Z,98411.97
2019-05-19T04:21:14.592Z,98404.48
2019-05-19T04:23:44.198Z,98410.68
2019-05-19T04:26:13.803Z,98406.20
2019-05-19T04:28:43.401Z,98407.81
2019-05-19T04:31:13.009Z,98407.59
2019-05-19T04:33:42.667Z,98414.05
2019-05-19T04:36:12.297Z,98414.83
2019-05-19T04:38:41.879Z,98414.38
2019-05-19T04:41:11.473Z,98414.04
2019-05-19T04:43:41.110Z,98413.41
2019-05-19T04:46:10.771Z,98422.69
2019-05-19T04:48:40.404Z,98428.63
2019-05-19T04:51:09.974Z,98426.81
2019-05-19T04:53:39.581Z,98425.32
2019-05-19T04:56:09.210Z,98425.38
2019-05-19T04:58:38.866Z,98421.73
2019-05-19T05:01:08.488Z,98420.28
2019-05-19T05:03:38.091Z,98424.49
2019-05-19T05:06:07.897Z,98426.97
2019-05-19T05:08:37.503Z,98423.31
2019-05-19T05:11:07.137Z,98420.24
2019-05-19T05:13:36.747Z,98418.48
2019-05-19T05:16:06.361Z,98419.29
2019-05-19T05:18:35.982Z,98418.58
2019-05-19T05:21:05.583Z,98414.16
2019-05-19T05:23:35.255Z,98417.92
2019-05-19T05:26:04.839Z,98430.11
2019-05-19T05:28:34.491Z,98429.51
2019-05-19T05:31:04.143Z,98426.97
2019-05-19T05:33:33.807Z,98437.46
2019-05-19T05:36:03.532Z,98427.37
2019-05-19T05:38:33.145Z,98428.81
2019-05-19T05:41:02.754Z,98435.23
2019-05-19T05:43:32.339Z,98437.92
2019-05-19T05:46:01.928Z,98443.20
2019-05-19T05:48:31.574Z,98441.30
2019-05-19T05:51:01.170Z,98438.47
2019-05-19T05:53:30.780Z,98436.05
2019-05-19T05:56:00.363Z,98438.28
2019-05-19T05:58:29.944Z,98440.56
2019-05-19T06:00:59.594Z,98444.66
2019-05-19T06:03:29.203Z,98447.09
2019-05-19T06:05:58.798Z,98442.44
2019-05-19T06:08:28.401Z,98437.92
2019-05-19T06:10:58.011Z,98436.64
2019-05-19T06:13:27.720Z,98426.81
2019-05-19T06:15:57.351Z,98434.66
2019-05-19T06:18:26.949Z,98423.83
2019-05-19T06:20:56.562Z,98419.94
2019-05-19T06:23:26.222Z,98417.56
2019-05-19T06:25:55.822Z,98412.17
2019-05-19T06:28:25.452Z,98414.82
2019-05-19T06:30:55.089Z,98421.31
2019-05-19T06:33:24.734Z,98421.34
2019-05-19T06:35:54.353Z,98418.20
2019-05-19T06:38:24.002Z,98425.84
2019-05-19T06:40:53.731Z,98428.88
2019-05-19T06:43:23.351Z,98424.30
2019-05-19T06:45:52.977Z,98423.30
2019-05-19T06:48:22.584Z,98420.23
2019-05-19T06:50:52.156Z,98419.76
2019-05-19T06:53:21.820Z,98426.56
2019-05-19T06:55:51.424Z,98420.28
2019-05-19T06:58:21.016Z,98418.65
2019-05-19T07:00:50.657Z,98417.02
2019-05-19T07:03:20.191Z,98418.93
2019-05-19T07:05:49.860Z,98423.32
2019-05-19T07:08:19.414Z,98426.05
2019-05-19T07:10:48.987Z,98434.45
2019-05-19T07:13:18.596Z,98436.98
2019-05-19T07:15:48.201Z,98435.63
2019-05-19T07:18:17.841Z,98423.59
2019-05-19T07:20:47.408Z,98430.45
2019-05-19T07:23:27.687Z,98422.20
2019-05-19T07:25:48.369Z,98424.13
2019-05-19T07:28:18.036Z,98418.25
2019-05-19T07:30:47.698Z,98412.69
2019-05-19T07:33:17.267Z,98410.77
2019-05-19T07:35:46.875Z,98407.29
2019-05-19T07:38:16.474Z,98410.20
2019-05-19T07:40:46.138Z,98402.73
2019-05-19T07:43:15.849Z,98395.94
2019-05-19T07:45:45.404Z,98391.84
2019-05-19T07:48:14.971Z,98380.25
2019-05-19T07:50:44.591Z,98378.52
2019-05-19T07:53:14.243Z,98380.51
2019-05-19T07:55:43.971Z,98370.41
2019-05-19T07:58:13.584Z,98370.69
2019-05-19T08:00:43.146Z,98374.55
2019-05-19T08:03:12.745Z,98376.00
2019-05-19T08:05:42.356Z,98363.83
2019-05-19T08:08:12.068Z,98373.14
2019-05-19T08:10:41.708Z,98373.64
2019-05-19T08:13:11.333Z,98364.55
2019-05-19T08:15:40.951Z,98364.55
2019-05-19T08:18:10.619Z,98379.81
2019-05-19T08:20:40.243Z,98376.95
2019-05-19T08:23:09.860Z,98375.89
2019-05-19T08:25:39.482Z,98375.13
2019-05-19T08:28:09.365Z,98369.64
2019-05-19T08:30:39.002Z,98358.77
2019-05-19T08:33:08.668Z,98366.86
2019-05-19T08:35:38.298Z,98367.42
2019-05-19T08:38:07.919Z,98366.20
2019-05-19T08:40:37.539Z,98369.80
2019-05-19T08:43:07.082Z,98372.52
2019-05-19T08:45:36.735Z,98380.80
2019-05-19T08:48:06.346Z,98381.97
2019-05-19T08:50:36.055Z,98390.00
2019-05-19T08:53:05.666Z,98390.88
2019-05-19T08:55:35.259Z,98390.31
2019-05-19T08:58:05.043Z,98381.14
2019-05-19T09:00:38.246Z,98369.63
2019-05-19T09:03:06.000Z,98372.84
2019-05-19T09:05:35.593Z,98377.28
2019-05-19T09:08:05.172Z,98378.01
2019-05-19T09:10:34.831Z,98375.05
2019-05-19T09:13:04.428Z,98381.64
2019-05-19T09:15:34.040Z,98376.85
2019-05-19T09:18:03.686Z,98381.64
2019-05-19T09:20:33.281Z,98377.26
2019-05-19T09:23:02.997Z,98380.64
2019-05-19T09:25:32.636Z,98376.36
2019-05-19T09:28:02.243Z,98375.09
2019-05-19T09:30:31.891Z,98372.16
2019-05-19T09:33:01.565Z,98367.99
2019-05-19T09:35:31.189Z,98357.67
2019-05-19T09:38:00.798Z,98354.76
2019-05-19T09:40:30.437Z,98357.61
2019-05-19T09:42:59.993Z,98356.42
2019-05-19T09:45:29.629Z,98358.28
2019-05-19T09:47:59.294Z,98353.98
2019-05-19T09:50:28.903Z,98352.88
2019-05-19T09:52:58.515Z,98347.02
2019-05-19T09:55:28.122Z,98342.33
2019-05-19T09:57:57.713Z,98340.23
2019-05-19T10:00:27.445Z,98344.13
2019-05-19T10:02:56.980Z,98338.94
2019-05-19T10:05:26.589Z,98324.51
2019-05-19T10:07:56.164Z,98313.70
2019-05-19T10:10:41.086Z,98320.31
2019-05-19T10:13:10.765Z,98312.47
2019-05-19T10:15:40.375Z,98301.80
2019-05-19T10:18:10.088Z,98299.36
2019-05-19T10:20:39.694Z,98288.79
2019-05-19T10:23:09.295Z,98298.88
2019-05-19T10:25:38.857Z,98300.47
2019-05-19T10:28:08.447Z,98282.91
2019-05-19T10:30:38.092Z,98281.21
2019-05-19T10:33:07.755Z,98285.05
2019-05-19T10:35:37.429Z,98271.09
2019-05-19T10:38:06.956Z,98261.66
2019-05-19T10:40:36.525Z,98256.11
2019-05-19T10:43:06.122Z,98240.84
2019-05-19T10:45:36.274Z,98244.34
2019-05-19T10:48:05.872Z,98243.41
2019-05-19T10:50:35.434Z,98243.56
2019-05-19T10:53:05.015Z,98240.98
2019-05-19T10:55:36.766Z,98239.92
2019-05-19T10:58:06.075Z,98234.71
2019-05-19T11:00:35.795Z,98235.45
2019-05-19T11:03:05.411Z,98229.06
2019-05-19T11:05:34.968Z,98219.23
2019-05-19T11:08:04.606Z,98213.31
2019-05-19T11:10:34.209Z,98199.94
2019-05-19T11:13:03.773Z,98190.23
2019-05-19T11:15:33.372Z,98181.69
2019-05-19T11:18:06.242Z,98184.00
2019-05-19T11:20:34.366Z,98188.23
2019-05-19T11:23:03.975Z,98187.47
2019-05-19T11:25:34.548Z,98180.55
2019-05-19T11:28:04.150Z,98182.25
2019-05-19T11:30:33.730Z,98174.97
2019-05-19T11:33:03.352Z,98178.63
2019-05-19T11:35:32.923Z,98177.91
2019-05-19T11:38:02.536Z,98179.77
2019-05-19T11:40:32.106Z,98180.86
2019-05-19T11:43:01.838Z,98179.24
2019-05-19T11:45:31.506Z,98176.81
2019-05-19T11:48:01.120Z,98174.34
2019-05-19T11:50:30.684Z,98168.05
2019-05-19T11:53:00.289Z,98167.55
2019-05-19T11:55:29.882Z,98166.69
2019-05-19T11:57:59.586Z,98168.27
2019-05-19T12:00:29.153Z,98173.66
2019-05-19T12:02:58.713Z,98174.20
2019-05-19T12:05:28.336Z,98172.73
2019-05-19T12:07:57.921Z,98174.01
2019-05-19T12:10:27.564Z,98166.79
2019-05-19T12:12:57.191Z,98163.66
2019-05-19T12:15:26.769Z,98163.41
2019-05-19T12:17:56.407Z,98160.40
2019-05-19T12:20:25.989Z,98161.08
2019-05-19T12:22:55.633Z,98151.88
2019-05-19T12:25:25.236Z,98151.41
2019-05-19T12:27:54.859Z,98154.53
2019-05-19T12:30:24.565Z,98152.72
2019-05-19T12:32:54.187Z,98147.92
2019-05-19T12:35:23.877Z,98141.49
2019-05-19T12:37:53.523Z,98138.77
2019-05-19T12:40:23.279Z,98140.78
2019-05-19T12:42:52.935Z,98137.78
2019-05-19T12:45:22.737Z,98137.05
2019-05-19T12:47:52.745Z,98129.16
2019-05-19T12:50:22.541Z,98123.05
2019-05-19T12:52:52.121Z,98114.91
2019-05-19T12:55:21.834Z,98114.20
2019-05-19T12:57:52.238Z,98108.59
2019-05-19T13:00:22.040Z,98101.68
2019-05-19T13:02:51.632Z,98106.34
2019-05-19T13:05:21.210Z,98097.94
2019-05-19T13:07:50.819Z,98091.20
2019-05-19T13:10:20.572Z,98080.29
2019-05-19T13:12:50.182Z,98094.87
2019-05-19T13:15:20.007Z,98090.52
2019-05-19T13:17:49.696Z,98086.20
2019-05-19T13:20:19.749Z,98088.59
2019-05-19T13:22:49.298Z,98075.40
2019-05-19T13:25:18.928Z,98081.55
2019-05-19T13:27:48.563Z,98071.39
2019-05-19T13:30:18.629Z,98065.73
2019-05-19T13:32:48.228Z,98062.31
2019-05-19T13:35:18.011Z,98062.22
2019-05-19T13:37:47.678Z,98059.25
2019-05-19T13:40:17.394Z,98059.84
2019-05-19T13:42:46.960Z,98056.26
2019-05-19T13:45:16.726Z,98057.94
2019-05-19T13:47:46.465Z,98055.75
2019-05-19T13:50:16.310Z,98061.11
2019-05-19T13:52:47.029Z,98068.39
2019-05-19T13:55:17.110Z,98062.88
2019-05-19T13:57:46.694Z,98059.70
2019-05-19T14:00:16.608Z,98053.84
2019-05-19T14:02:46.190Z,98050.78
2019-05-19T14:05:15.854Z,98064.91
2019-05-19T14:07:45.447Z,98066.69
2019-05-19T14:10:15.447Z,98066.95
2019-05-19T14:12:45.031Z,98074.08
2019-05-19T14:15:14.705Z,98075.69
2019-05-19T14:17:44.341Z,98080.08
2019-05-19T14:20:14.397Z,98061.27
2019-05-19T14:22:43.980Z,98069.36
2019-05-19T14:25:13.753Z,98066.05
2019-05-19T14:27:43.318Z,98057.78
2019-05-19T14:30:13.423Z,98056.98
2019-05-19T14:32:42.999Z,98051.86
2019-05-19T14:35:12.731Z,98039.24
2019-05-19T14:37:42.328Z,98046.95
2019-05-19T14:40:12.012Z,98049.83
2019-05-19T14:42:49.177Z,98055.02
2019-05-19T14:45:19.685Z,98055.59
2019-05-19T14:47:49.349Z,98055.64
2019-05-19T14:50:20.506Z,98060.66
2019-05-19T14:52:50.064Z,98058.27
2019-05-19T14:55:20.400Z,98051.63
2019-05-19T14:57:49.978Z,98050.64
2019-05-19T15:00:19.995Z,98045.62
2019-05-19T15:02:49.710Z,98049.27
2019-05-19T15:05:19.504Z,98052.83
2019-05-19T15:07:49.073Z,98047.80
2019-05-19T15:10:18.763Z,98052.48
2019-05-19T15:12:48.339Z,98061.73
2019-05-19T15:15:18.148Z,98061.66
2019-05-19T15:17:47.769Z,98061.95
2019-05-19T15:20:17.330Z,98059.20
2019-05-19T15:22:46.951Z,98061.84
2019-05-19T15:25:16.620Z,98070.43
2019-05-19T15:27:59.335Z,98062.16
2019-05-19T15:30:17.822Z,98072.02
2019-05-19T15:32:47.405Z,98064.66
2019-05-19T15:35:17.248Z,98068.48
2019-05-19T15:37:46.827Z,98068.96
2019-05-19T15:40:16.426Z,98069.52
2019-05-19T15:42:46.054Z,98067.91
2019-05-19T15:45:15.901Z,98062.70
2019-05-19T15:47:45.535Z,98056.00
2019-05-19T15:50:15.621Z,98050.02
2019-05-19T15:52:45.261Z,98042.48
2019-05-19T15:55:15.066Z,98040.03
2019-05-19T15:57:44.697Z,98039.03
2019-05-19T16:00:15.416Z,98041.80
2019-05-19T16:02:45.028Z,98040.84
2019-05-19T16:05:15.089Z,98037.75
2019-05-19T16:07:44.692Z,98037.26
2019-05-19T16:10:15.200Z,98046.88
2019-05-19T16:12:44.838Z,98030.34
2019-05-19T16:15:14.770Z,98034.65
2019-05-19T16:17:44.363Z,98036.20
2019-05-19T16:20:14.140Z,98020.59
2019-05-19T16:22:43.702Z,98022.62
2019-05-19T16:25:13.566Z,98029.73
2019-05-19T16:27:43.206Z,98025.07
2019-05-19T16:30:13.098Z,98020.08
2019-05-19T16:32:42.723Z,98015.00
2019-05-19T16:35:12.608Z,98020.39
2019-05-19T16:37:42.289Z,98019.47
2019-05-19T16:40:12.493Z,98022.63
2019-05-19T16:42:42.119Z,98015.17
2019-05-19T16:45:12.055Z,98015.00
2019-05-19T16:47:41.678Z,98017.77
2019-05-19T16:50:11.577Z,98013.08
2019-05-19T16:52:41.273Z,98019.55
2019-05-19T16:55:21.644Z,98029.31
2019-05-19T16:57:51.245Z,98033.70
2019-05-19T17:00:21.265Z,98017.45
2019-05-19T17:02:50.890Z,98016.79
2019-05-19T17:05:20.635Z,98011.48
2019-05-19T17:07:50.386Z,98018.81
2019-05-19T17:10:20.578Z,98015.30
2019-05-19T17:12:50.194Z,98008.83
2019-05-19T17:15:20.090Z,98007.71
2019-05-19T17:17:49.666Z,98013.83
2019-05-19T17:20:20.485Z,98013.64
2019-05-19T17:22:50.095Z,98013.06
2019-05-19T17:25:19.694Z,98009.00
2019-05-19T17:27:49.291Z,98009.44
2019-05-19T17:30:19.398Z,98003.52
2019-05-19T17:32:49.031Z,98009.01
2019-05-19T17:35:18.846Z,98017.92
2019-05-19T17:37:48.452Z,98021.94
2019-05-19T17:40:18.574Z,98031.17
2019-05-19T17:42:48.185Z,98036.58
2019-05-19T17:45:18.927Z,98036.36
2019-05-19T17:47:48.505Z,98020.48
2019-05-19T17:50:21.518Z,98017.06
2019-05-19T17:52:51.189Z,98039.75
2019-05-19T17:55:20.805Z,98041.27
2019-05-19T17:57:50.742Z,98024.28
2019-05-19T18:00:26.711Z,98034.33
2019-05-19T18:02:56.353Z,98032.74
2019-05-19T18:05:26.191Z,98026.71
2019-05-19T18:07:55.810Z,98027.81
2019-05-19T18:10:25.452Z,98035.41
2019-05-19T18:12:55.068Z,98027.58
2019-05-19T18:15:24.718Z,98025.83
2019-05-19T18:17:54.356Z,98017.77
2019-05-19T18:20:24.447Z,98014.97
2019-05-19T18:22:54.189Z,98014.17
2019-05-19T18:25:23.871Z,98023.78
2019-05-19T18:27:53.551Z,98023.27
2019-05-19T18:30:23.313Z,98022.89
2019-05-19T18:32:52.931Z,98021.98
2019-05-19T18:35:22.588Z,98025.77
2019-05-19T18:37:52.240Z,98023.88
2019-05-19T18:40:22.456Z,98031.27
2019-05-19T18:42:52.078Z,98038.23
2019-05-19T18:45:21.852Z,98040.56
2019-05-19T18:47:51.455Z,98046.96
2019-05-19T18:50:21.049Z,98053.86
2019-05-19T18:52:50.822Z,98055.86
2019-05-19T18:55:20.423Z,98051.91
2019-05-19T18:57:50.034Z,98047.23
2019-05-19T19:00:37.553Z,98045.34
2019-05-19T19:03:07.757Z,98032.52
2019-05-19T19:05:37.707Z,98035.73
2019-05-19T19:08:07.377Z,98035.73
2019-05-19T19:10:36.996Z,98046.59
2019-05-19T19:13:06.701Z,98044.95
2019-05-19T19:15:36.296Z,98054.77
2019-05-19T19:18:08.370Z,98049.19
2019-05-19T19:20:38.013Z,98045.35
2019-05-19T19:23:07.590Z,98049.13
2019-05-19T19:25:37.176Z,98044.32
2019-05-19T19:28:06.774Z,98042.60
2019-05-19T19:30:36.420Z,98034.85
2019-05-19T19:33:06.155Z,98031.48
2019-05-19T19:35:39.300Z,98027.63
2019-05-19T19:38:07.245Z,98017.03
2019-05-19T19:40:36.873Z,98020.97
2019-05-19T19:43:06.524Z,98025.73
2019-05-19T19:45:36.156Z,98029.29
2019-05-19T19:48:05.857Z,98034.52
2019-05-19T19:50:35.682Z,98045.69
2019-05-19T19:53:05.346Z,98049.89
2019-05-19T19:55:34.953Z,98041.55
2019-05-19T19:58:04.610Z,98044.98
2019-05-19T20:00:44.947Z,98052.70
2019-05-19T20:03:16.057Z,98062.69
2019-05-19T20:05:45.730Z,98071.18
2019-05-19T20:08:15.321Z,98078.71
2019-05-19T20:10:44.913Z,98082.91
2019-05-19T20:13:14.518Z,98084.70
2019-05-19T20:15:44.145Z,98082.09
2019-05-19T20:18:13.707Z,98083.94
2019-05-19T20:20:43.356Z,98081.86
2019-05-19T20:23:13.011Z,98081.86
2019-05-19T20:25:42.628Z,98087.53
2019-05-19T20:28:12.245Z,98081.21
2019-05-19T20:30:41.840Z,98083.88
2019-05-19T20:33:11.550Z,98080.83
2019-05-19T20:35:41.150Z,98080.83
2019-05-19T20:38:10.738Z,98099.08
2019-05-19T20:40:40.465Z,98094.22
2019-05-19T20:43:10.167Z,98096.42
2019-05-19T20:45:39.901Z,98100.36
2019-05-19T20:48:09.607Z,98099.27
2019-05-19T20:50:39.392Z,98105.59
2019-05-19T20:53:09.061Z,98111.26
2019-05-19T20:55:38.756Z,98103.77
2019-05-19T20:58:08.489Z,98112.09
2019-05-19T21:00:50.159Z,98117.30
2019-05-19T21:03:09.536Z,98119.78
2019-05-19T21:05:39.295Z,98117.86
2019-05-19T21:08:08.998Z,98124.84
2019-05-19T21:10:38.780Z,98124.84
2019-05-19T21:13:08.486Z,98122.03
2019-05-19T21:15:38.112Z,98131.23
2019-05-19T21:18:07.744Z,98131.23
2019-05-19T21:20:37.457Z,98143.02
2019-05-19T21:23:07.157Z,98139.61
2019-05-19T21:25:37.063Z,98139.64
2019-05-19T21:28:06.766Z,98150.22
2019-05-19T21:30:36.459Z,98150.17
2019-05-19T21:33:06.086Z,98150.70
2019-05-19T21:35:35.952Z,98148.99
2019-05-19T21:38:05.649Z,98141.41
2019-05-19T21:40:35.307Z,98137.59
2019-05-19T21:43:05.047Z,98120.45
2019-05-19T21:45:34.728Z,98124.67
2019-05-19T21:48:04.477Z,98140.09
2019-05-19T21:50:34.124Z,98138.75
2019-05-19T21:53:06.468Z,98123.91
2019-05-19T21:55:35.276Z,98123.86
2019-05-19T21:58:04.981Z,98135.16
2019-05-19T22:00:35.274Z,98132.80
2019-05-19T22:03:05.086Z,98144.25
2019-05-19T22:05:34.760Z,98148.16
2019-05-19T22:08:10.563Z,98145.57
2019-05-19T22:10:40.338Z,98148.53
2019-05-19T22:13:10.061Z,98147.33
2019-05-19T22:15:39.787Z,98146.94
2019-05-19T22:18:09.444Z,98137.08
2019-05-19T22:20:39.130Z,98132.54
2019-05-19T22:23:08.811Z,98133.87
2019-05-19T22:25:38.556Z,98138.41
2019-05-19T22:28:08.291Z,98134.23
2019-05-19T22:30:37.969Z,98127.94
2019-05-19T22:33:07.727Z,98129.53
2019-05-19T22:35:37.416Z,98122.56
2019-05-19T22:38:09.421Z,98123.08
2019-05-19T22:40:38.528Z,98109.64
2019-05-19T22:43:08.243Z,98112.51
2019-05-19T22:45:37.964Z,98110.93
2019-05-19T22:48:07.629Z,98106.08
2019-05-19T22:50:37.351Z,98103.42
2019-05-19T22:53:07.004Z,98102.08
2019-05-19T22:55:36.656Z,98109.58
2019-05-19T22:58:06.332Z,98114.02
2019-05-19T23:00:36.066Z,98106.09
2019-05-19T23:03:05.937Z,98105.44
2019-05-19T23:05:35.638Z,98115.14
2019-05-19T23:08:05.274Z,98109.40
2019-05-19T23:10:34.947Z,98112.52
2019-05-19T23:13:04.717Z,98106.48
2019-05-19T23:15:34.455Z,98104.01
2019-05-19T23:18:04.103Z,98102.67
2019-05-19T23:20:33.835Z,98098.57
2019-05-19T23:23:03.542Z,98086.02
2019-05-19T23:25:33.195Z,98090.63
2019-05-19T23:28:02.955Z,98093.41
2019-05-19T23:30:32.634Z,98098.55
2019-05-19T23:33:02.291Z,98101.80
2019-05-19T23:35:31.970Z,98088.69
2019-05-19T23:38:01.655Z,98093.59
2019-05-19T23:40:31.352Z,98098.86
2019-05-19T23:43:01.018Z,98099.82
2019-05-19T23:45:30.713Z,98099.59
2019-05-19T23:48:00.388Z,98102.07
2019-05-19T23:50:30.081Z,98108.63
2019-05-19T23:52:59.791Z,98110.35
2019-05-19T23:55:29.424Z,98112.20
2019-05-19T23:57:59.117Z,98121.72
